»·PEaware :: N650TB KSBA-KPMD

N650TB :: KSBA-KPMD

FLIGHT INFORMATION

Flight Status: Arrived
Operator: Privately registered:
United States
More flights under this callsign
Pilot: Nick S. (24447)
Aircraft: CESSNA 172 SKYHAWK
(C172)
More flights by this aircraft type
Origin: KSBA Santa Barbara Mun
United States
Destination: KPMD Palmdale AF Plant 42
United States
More flights between these airports :: More routes between these airports
Route:
File this flight plan on PilotEdge
Remarks:
Altitude:
(Current/Filed)
6,500ft
Speed:
(Current/Filed)
115kts
Departed: 11-May-22 02:58 PM
Arrived: 11-May-22 03:46 PM
Distance/Time
Traveled:
88nm/0:48
Distance/Time
To Go:
Arrived

Flight Plot

Page will automatically refresh every two minutes.

Flight plan parsing failed; only flown route is shown


Map Options




Map Legend


Flown Route
Filed Route
Departure Airport
Arrival Airport
Navaid (VOR, NDB)
Fix

Horizontal Profiles

Position Reports

Time Latitude Longitude Heading Altitude Ground
Speed
11-May-22 14:39 34.429336 -119.844956 62 12ft 0kts
11-May-22 14:40 34.429336 -119.844956 62 12ft 0kts
11-May-22 14:41 34.429336 -119.844956 62 12ft 0kts
11-May-22 14:42 34.429336 -119.844956 62 12ft 0kts
11-May-22 14:43 34.429336 -119.844956 62 12ft 0kts
11-May-22 14:44 34.429336 -119.844956 62 12ft 0kts
11-May-22 14:45 34.429336 -119.844956 62 12ft 0kts
11-May-22 14:46 34.429336 -119.844956 62 12ft 0kts
11-May-22 14:47 34.429336 -119.844956 62 12ft 0kts
11-May-22 14:48 34.429336 -119.844956 62 12ft 0kts
11-May-22 14:49 34.429336 -119.844956 62 12ft 0kts
11-May-22 14:50 34.429336 -119.844956 62 12ft 0kts
11-May-22 14:51 34.429336 -119.844956 62 12ft 0kts
11-May-22 14:52 34.429150 -119.844825 153 12ft 4kts
11-May-22 14:53 34.429180 -119.843726 64 12ft 10kts
11-May-22 14:54 34.429270 -119.842926 344 12ft 0kts
11-May-22 14:55 34.429270 -119.842926 344 12ft 0kts
11-May-22 14:56 34.430031 -119.841409 132 12ft 2kts
11-May-22 14:57 34.415238 -119.836101 162 460ft 85kts
11-May-22 14:58 34.400278 -119.814189 96 1295ft 100kts
11-May-22 14:59 34.399193 -119.781499 81 2170ft 104kts
11-May-22 15:00 34.401027 -119.745250 79 2955ft 100kts
11-May-22 15:01 34.402427 -119.712007 79 4019ft 94kts
11-May-22 15:02 34.403427 -119.683187 79 4990ft 79kts
11-May-22 15:03 34.404748 -119.654697 79 5635ft 91kts
11-May-22 15:04 34.406774 -119.622677 79 6261ft 97kts
11-May-22 15:05 34.409397 -119.584683 80 6350ft 124kts
11-May-22 15:06 34.413114 -119.542267 78 6343ft 128kts
11-May-22 15:07 34.417213 -119.499731 79 6403ft 123kts
11-May-22 15:08 34.420068 -119.463737 78 6922ft 97kts
11-May-22 15:09 34.422376 -119.431661 79 7341ft 106kts
11-May-22 15:10 34.426306 -119.391206 78 7333ft 128kts
11-May-22 15:11 34.430389 -119.348520 78 7346ft 128kts
11-May-22 15:12 34.434593 -119.305055 78 7366ft 131kts
11-May-22 15:13 34.439115 -119.260593 78 7369ft 133kts
11-May-22 15:14 34.443800 -119.215988 78 7372ft 134kts
11-May-22 15:15 34.448776 -119.171579 78 7369ft 132kts
11-May-22 15:16 34.453914 -119.127703 78 7396ft 128kts
11-May-22 15:17 34.458918 -119.084804 78 7396ft 128kts
11-May-22 15:18 34.464009 -119.042738 78 7395ft 125kts
11-May-22 15:19 34.469355 -118.999747 78 7411ft 129kts
11-May-22 15:20 34.474530 -118.957524 78 7392ft 125kts
11-May-22 15:21 34.479745 -118.915271 78 7397ft 127kts
11-May-22 15:22 34.484830 -118.872674 78 7432ft 129kts
11-May-22 15:23 34.490285 -118.828823 77 7389ft 129kts
11-May-22 15:24 34.496063 -118.785392 77 6990ft 130kts
11-May-22 15:25 34.501941 -118.742601 76 6940ft 123kts
11-May-22 15:26 34.507026 -118.702335 77 7373ft 119kts
11-May-22 15:27 34.512280 -118.659754 77 7391ft 132kts
11-May-22 15:28 34.517771 -118.615761 77 7428ft 136kts
11-May-22 15:29 34.523560 -118.570360 77 7410ft 137kts
11-May-22 15:30 34.531213 -118.525605 66 7435ft 135kts
11-May-22 15:31 34.543546 -118.482411 66 7425ft 134kts
11-May-22 15:32 34.555602 -118.439562 67 7336ft 132kts
11-May-22 15:33 34.569593 -118.400222 56 6818ft 123kts
11-May-22 15:34 34.579594 -118.359301 73 6513ft 128kts
11-May-22 15:35 34.583229 -118.315921 80 6078ft 128kts
11-May-22 15:36 34.590040 -118.273408 82 5605ft 129kts
11-May-22 15:37 34.592009 -118.230679 79 5391ft 122kts
11-May-22 15:38 34.595979 -118.189823 84 5163ft 122kts
11-May-22 15:39 34.590193 -118.148964 96 5020ft 124kts
11-May-22 15:40 34.592044 -118.107568 72 4766ft 122kts
11-May-22 15:41 34.604219 -118.070483 84 4079ft 123kts
11-May-22 15:42 34.620124 -118.049382 2 3496ft 87kts
11-May-22 15:43 34.633776 -118.056651 267 2903ft 68kts
11-May-22 15:44 34.632681 -118.075372 271 2521ft 46kts
11-May-22 15:45 34.632503 -118.082202 298 2516ft 17kts
11-May-22 15:46 34.636983 -118.082304 42 2505ft 11kts
11-May-22 15:47 34.638139 -118.079376 89 2500ft 10kts
11-May-22 15:48 34.637966 -118.078903 174 2500ft 0kts
11-May-22 15:49 34.637966 -118.078903 174 2500ft 0kts

Navigation Log

Ident Type
Flight plan parsing failed, navigation log unavailable